Terminal Aerodrome Forecast
Issued by NWS

Home | Current Version | Previous Version | Text Only | Print | Product List | Glossary On
Versions: 1 2 3 4 5 6 7 8 9 10 11 12 13
000
FTUS41 KRNK 250540
TAFBCB
TAF
KBCB 250540Z 2506/2606 00000KT P6SM SCT100 BKN250
     FM251200 15006KT P6SM -SHRA SCT020 OVC060
     FM251500 18007KT 5SM SHRA OVC020
     FM251900 24008KT P6SM SCT025 BKN110
     FM252100 26010G20KT P6SM SCT030 SCT110
     FM260000 29013G23KT P6SM SKC=

USA.gov is the U.S. government's official web portal to all federal, state and local government web resources and services.